sensor_id;sensor_type;location;lat;lon;timestamp;P1;durP1;ratioP1;P2;durP2;ratioP2
70433;SDS011;57876;47.792;12.960;2023-08-21T00:00:20;5.37;;;1.93;;
70433;SDS011;57876;47.792;12.960;2023-08-21T00:02:45;5.33;;;1.90;;
70433;SDS011;57876;47.792;12.960;2023-08-21T00:05:09;5.10;;;1.98;;
70433;SDS011;57876;47.792;12.960;2023-08-21T00:07:33;5.57;;;2.07;;
70433;SDS011;57876;47.792;12.960;2023-08-21T00:09:58;5.73;;;2.17;;
70433;SDS011;57876;47.792;12.960;2023-08-21T00:12:22;5.63;;;2.20;;
70433;SDS011;57876;47.792;12.960;2023-08-21T00:14:46;5.10;;;1.90;;
70433;SDS011;57876;47.792;12.960;2023-08-21T00:17:11;5.40;;;2.10;;
70433;SDS011;57876;47.792;12.960;2023-08-21T00:19:35;5.00;;;2.00;;
70433;SDS011;57876;47.792;12.960;2023-08-21T00:22:00;5.10;;;2.00;;
70433;SDS011;57876;47.792;12.960;2023-08-21T00:24:24;5.03;;;1.77;;
70433;SDS011;57876;47.792;12.960;2023-08-21T00:26:49;5.40;;;1.90;;
70433;SDS011;57876;47.792;12.960;2023-08-21T00:29:13;5.27;;;2.07;;
70433;SDS011;57876;47.792;12.960;2023-08-21T00:31:38;5.33;;;2.13;;
70433;SDS011;57876;47.792;12.960;2023-08-21T00:34:02;5.23;;;2.07;;
70433;SDS011;57876;47.792;12.960;2023-08-21T00:36:26;5.73;;;2.10;;
70433;SDS011;57876;47.792;12.960;2023-08-21T00:38:51;5.28;;;2.00;;
70433;SDS011;57876;47.792;12.960;2023-08-21T00:41:15;5.30;;;1.93;;
70433;SDS011;57876;47.792;12.960;2023-08-21T00:43:39;5.20;;;2.00;;
70433;SDS011;57876;47.792;12.960;2023-08-21T00:46:04;5.40;;;2.30;;
70433;SDS011;57876;47.792;12.960;2023-08-21T00:48:29;4.80;;;1.85;;
70433;SDS011;57876;47.792;12.960;2023-08-21T00:50:54;5.13;;;2.10;;
70433;SDS011;57876;47.792;12.960;2023-08-21T00:53:20;5.78;;;2.03;;
70433;SDS011;57876;47.792;12.960;2023-08-21T00:55:44;5.67;;;2.20;;
70433;SDS011;57876;47.792;12.960;2023-08-21T00:58:09;4.97;;;1.90;;
70433;SDS011;57876;47.792;12.960;2023-08-21T01:00:36;5.50;;;2.10;;
70433;SDS011;57876;47.792;12.960;2023-08-21T01:03:00;5.17;;;2.00;;
70433;SDS011;57876;47.792;12.960;2023-08-21T01:05:25;5.37;;;2.20;;
70433;SDS011;57876;47.792;12.960;2023-08-21T01:10:26;5.40;;;2.10;;
70433;SDS011;57876;47.792;12.960;2023-08-21T01:15:46;5.35;;;2.42;;
70433;SDS011;57876;47.792;12.960;2023-08-21T01:18:14;5.70;;;2.42;;
70433;SDS011;57876;47.792;12.960;2023-08-21T01:20:39;4.88;;;1.92;;
70433;SDS011;57876;47.792;12.960;2023-08-21T01:23:05;5.50;;;2.27;;
70433;SDS011;57876;47.792;12.960;2023-08-21T01:25:30;5.35;;;2.00;;
70433;SDS011;57876;47.792;12.960;2023-08-21T01:27:54;4.80;;;1.85;;
70433;SDS011;57876;47.792;12.960;2023-08-21T01:30:20;5.13;;;1.93;;
70433;SDS011;57876;47.792;12.960;2023-08-21T01:35:14;5.30;;;2.25;;
70433;SDS011;57876;47.792;12.960;2023-08-21T01:37:39;5.30;;;2.20;;
70433;SDS011;57876;47.792;12.960;2023-08-21T01:40:04;5.30;;;2.05;;
70433;SDS011;57876;47.792;12.960;2023-08-21T01:42:29;5.70;;;2.10;;
70433;SDS011;57876;47.792;12.960;2023-08-21T01:44:54;5.67;;;2.23;;
70433;SDS011;57876;47.792;12.960;2023-08-21T01:47:18;5.07;;;2.00;;
70433;SDS011;57876;47.792;12.960;2023-08-21T01:49:43;5.43;;;2.07;;
70433;SDS011;57876;47.792;12.960;2023-08-21T01:52:07;5.40;;;2.00;;
70433;SDS011;57876;47.792;12.960;2023-08-21T01:54:31;5.23;;;2.27;;
70433;SDS011;57876;47.792;12.960;2023-08-21T01:56:56;5.15;;;2.10;;
70433;SDS011;57876;47.792;12.960;2023-08-21T01:59:21;5.27;;;2.10;;
70433;SDS011;57876;47.792;12.960;2023-08-21T02:01:47;5.53;;;2.20;;
70433;SDS011;57876;47.792;12.960;2023-08-21T02:04:11;5.10;;;2.03;;
70433;SDS011;57876;47.792;12.960;2023-08-21T02:06:35;5.30;;;2.07;;
70433;SDS011;57876;47.792;12.960;2023-08-21T02:09:00;5.23;;;2.10;;
70433;SDS011;57876;47.792;12.960;2023-08-21T02:11:24;5.33;;;2.10;;
70433;SDS011;57876;47.792;12.960;2023-08-21T02:13:49;5.70;;;2.23;;
70433;SDS011;57876;47.792;12.960;2023-08-21T02:16:13;5.23;;;2.07;;
70433;SDS011;57876;47.792;12.960;2023-08-21T02:18:37;5.30;;;2.30;;
70433;SDS011;57876;47.792;12.960;2023-08-21T02:21:02;5.00;;;1.80;;
70433;SDS011;57876;47.792;12.960;2023-08-21T02:23:27;5.30;;;2.27;;
70433;SDS011;57876;47.792;12.960;2023-08-21T02:25:51;5.20;;;1.90;;
70433;SDS011;57876;47.792;12.960;2023-08-21T02:28:16;5.03;;;1.97;;
70433;SDS011;57876;47.792;12.960;2023-08-21T02:30:41;5.80;;;2.20;;
70433;SDS011;57876;47.792;12.960;2023-08-21T02:33:06;5.57;;;2.40;;
70433;SDS011;57876;47.792;12.960;2023-08-21T02:35:30;5.60;;;2.20;;
70433;SDS011;57876;47.792;12.960;2023-08-21T02:37:54;5.83;;;2.17;;
70433;SDS011;57876;47.792;12.960;2023-08-21T02:40:19;5.37;;;2.17;;
70433;SDS011;57876;47.792;12.960;2023-08-21T02:42:43;5.10;;;2.03;;
70433;SDS011;57876;47.792;12.960;2023-08-21T02:45:08;5.53;;;2.40;;
70433;SDS011;57876;47.792;12.960;2023-08-21T02:47:39;4.90;;;1.90;;
70433;SDS011;57876;47.792;12.960;2023-08-21T02:50:04;6.32;;;2.38;;
70433;SDS011;57876;47.792;12.960;2023-08-21T02:52:30;5.10;;;1.90;;
70433;SDS011;57876;47.792;12.960;2023-08-21T02:54:55;6.00;;;2.50;;
70433;SDS011;57876;47.792;12.960;2023-08-21T02:57:20;5.37;;;2.20;;
70433;SDS011;57876;47.792;12.960;2023-08-21T02:59:44;5.57;;;2.10;;
70433;SDS011;57876;47.792;12.960;2023-08-21T03:02:08;5.53;;;2.00;;
70433;SDS011;57876;47.792;12.960;2023-08-21T03:04:33;5.43;;;2.20;;
70433;SDS011;57876;47.792;12.960;2023-08-21T03:06:57;5.57;;;2.23;;
70433;SDS011;57876;47.792;12.960;2023-08-21T03:09:21;5.07;;;2.00;;
70433;SDS011;57876;47.792;12.960;2023-08-21T03:11:46;5.50;;;2.20;;
70433;SDS011;57876;47.792;12.960;2023-08-21T03:14:10;5.90;;;2.27;;
70433;SDS011;57876;47.792;12.960;2023-08-21T03:16:35;5.47;;;2.30;;
70433;SDS011;57876;47.792;12.960;2023-08-21T03:19:00;5.30;;;2.05;;
70433;SDS011;57876;47.792;12.960;2023-08-21T03:21:24;5.30;;;2.30;;
70433;SDS011;57876;47.792;12.960;2023-08-21T03:23:50;5.00;;;2.15;;
70433;SDS011;57876;47.792;12.960;2023-08-21T03:26:15;5.20;;;2.10;;
70433;SDS011;57876;47.792;12.960;2023-08-21T03:28:40;6.17;;;2.40;;
70433;SDS011;57876;47.792;12.960;2023-08-21T03:31:04;5.47;;;2.10;;
70433;SDS011;57876;47.792;12.960;2023-08-21T03:33:29;5.77;;;2.30;;
70433;SDS011;57876;47.792;12.960;2023-08-21T03:35:53;5.50;;;2.22;;
70433;SDS011;57876;47.792;12.960;2023-08-21T03:38:19;6.00;;;2.23;;
70433;SDS011;57876;47.792;12.960;2023-08-21T03:40:43;5.70;;;2.22;;
70433;SDS011;57876;47.792;12.960;2023-08-21T03:43:07;5.40;;;2.10;;
70433;SDS011;57876;47.792;12.960;2023-08-21T03:45:32;5.23;;;2.23;;
70433;SDS011;57876;47.792;12.960;2023-08-21T03:47:56;5.20;;;2.10;;
70433;SDS011;57876;47.792;12.960;2023-08-21T03:50:21;5.60;;;2.10;;
70433;SDS011;57876;47.792;12.960;2023-08-21T03:52:45;5.83;;;2.50;;
70433;SDS011;57876;47.792;12.960;2023-08-21T03:55:09;6.00;;;2.40;;
70433;SDS011;57876;47.792;12.960;2023-08-21T03:57:34;5.40;;;2.10;;
70433;SDS011;57876;47.792;12.960;2023-08-21T03:59:58;5.57;;;2.03;;
70433;SDS011;57876;47.792;12.960;2023-08-21T04:02:22;5.80;;;2.07;;
70433;SDS011;57876;47.792;12.960;2023-08-21T04:04:47;5.70;;;2.40;;
70433;SDS011;57876;47.792;12.960;2023-08-21T04:07:12;5.40;;;2.17;;
70433;SDS011;57876;47.792;12.960;2023-08-21T04:09:36;5.63;;;2.40;;
70433;SDS011;57876;47.792;12.960;2023-08-21T04:12:00;5.83;;;2.60;;
70433;SDS011;57876;47.792;12.960;2023-08-21T04:14:25;5.63;;;2.03;;
70433;SDS011;57876;47.792;12.960;2023-08-21T04:16:49;5.67;;;2.40;;
70433;SDS011;57876;47.792;12.960;2023-08-21T04:19:13;5.40;;;2.20;;
70433;SDS011;57876;47.792;12.960;2023-08-21T04:21:38;5.40;;;2.30;;
70433;SDS011;57876;47.792;12.960;2023-08-21T04:24:02;5.30;;;2.20;;
70433;SDS011;57876;47.792;12.960;2023-08-21T04:26:26;5.90;;;2.27;;
70433;SDS011;57876;47.792;12.960;2023-08-21T04:28:51;5.50;;;2.23;;
70433;SDS011;57876;47.792;12.960;2023-08-21T04:31:15;5.70;;;2.20;;
70433;SDS011;57876;47.792;12.960;2023-08-21T04:33:40;5.73;;;2.47;;
70433;SDS011;57876;47.792;12.960;2023-08-21T04:36:04;5.87;;;2.20;;
70433;SDS011;57876;47.792;12.960;2023-08-21T04:38:29;5.60;;;2.37;;
70433;SDS011;57876;47.792;12.960;2023-08-21T04:40:53;5.73;;;2.60;;
70433;SDS011;57876;47.792;12.960;2023-08-21T04:43:17;5.43;;;2.20;;
70433;SDS011;57876;47.792;12.960;2023-08-21T04:45:48;5.63;;;2.13;;
70433;SDS011;57876;47.792;12.960;2023-08-21T04:48:14;5.55;;;2.15;;
70433;SDS011;57876;47.792;12.960;2023-08-21T04:50:38;5.80;;;2.38;;
70433;SDS011;57876;47.792;12.960;2023-08-21T04:53:03;5.07;;;2.17;;
70433;SDS011;57876;47.792;12.960;2023-08-21T04:55:27;5.67;;;2.40;;
70433;SDS011;57876;47.792;12.960;2023-08-21T04:57:52;5.55;;;2.38;;
70433;SDS011;57876;47.792;12.960;2023-08-21T05:00:17;5.60;;;2.20;;
70433;SDS011;57876;47.792;12.960;2023-08-21T05:02:41;5.40;;;2.30;;
70433;SDS011;57876;47.792;12.960;2023-08-21T05:05:06;5.95;;;2.40;;
70433;SDS011;57876;47.792;12.960;2023-08-21T05:07:30;5.93;;;2.40;;
70433;SDS011;57876;47.792;12.960;2023-08-21T05:09:55;6.10;;;2.67;;
70433;SDS011;57876;47.792;12.960;2023-08-21T05:12:23;5.63;;;2.40;;
70433;SDS011;57876;47.792;12.960;2023-08-21T05:14:49;5.82;;;2.38;;
70433;SDS011;57876;47.792;12.960;2023-08-21T05:17:14;6.00;;;2.50;;
70433;SDS011;57876;47.792;12.960;2023-08-21T05:19:38;5.47;;;2.43;;
70433;SDS011;57876;47.792;12.960;2023-08-21T05:22:02;5.83;;;2.50;;
70433;SDS011;57876;47.792;12.960;2023-08-21T05:24:27;5.30;;;2.30;;
70433;SDS011;57876;47.792;12.960;2023-08-21T05:26:53;5.60;;;2.30;;
70433;SDS011;57876;47.792;12.960;2023-08-21T05:29:17;5.57;;;2.40;;
70433;SDS011;57876;47.792;12.960;2023-08-21T05:31:42;5.43;;;2.40;;
70433;SDS011;57876;47.792;12.960;2023-08-21T05:34:06;6.13;;;2.80;;
70433;SDS011;57876;47.792;12.960;2023-08-21T05:36:31;5.83;;;2.43;;
70433;SDS011;57876;47.792;12.960;2023-08-21T05:38:56;6.23;;;2.67;;
70433;SDS011;57876;47.792;12.960;2023-08-21T05:41:20;5.93;;;2.80;;
70433;SDS011;57876;47.792;12.960;2023-08-21T05:43:45;6.20;;;2.43;;
70433;SDS011;57876;47.792;12.960;2023-08-21T05:46:09;5.97;;;2.53;;
70433;SDS011;57876;47.792;12.960;2023-08-21T05:48:34;6.53;;;2.47;;
70433;SDS011;57876;47.792;12.960;2023-08-21T05:50:58;5.93;;;2.38;;
70433;SDS011;57876;47.792;12.960;2023-08-21T05:53:23;6.10;;;2.60;;
70433;SDS011;57876;47.792;12.960;2023-08-21T05:55:47;5.93;;;2.60;;
70433;SDS011;57876;47.792;12.960;2023-08-21T05:58:12;6.32;;;2.80;;
70433;SDS011;57876;47.792;12.960;2023-08-21T06:00:37;6.93;;;2.60;;
70433;SDS011;57876;47.792;12.960;2023-08-21T06:03:03;6.10;;;2.60;;
70433;SDS011;57876;47.792;12.960;2023-08-21T06:05:27;5.77;;;2.30;;
70433;SDS011;57876;47.792;12.960;2023-08-21T06:07:51;6.37;;;2.83;;
70433;SDS011;57876;47.792;12.960;2023-08-21T06:10:16;7.67;;;2.80;;
70433;SDS011;57876;47.792;12.960;2023-08-21T06:12:40;6.40;;;2.70;;
70433;SDS011;57876;47.792;12.960;2023-08-21T06:15:05;5.75;;;2.55;;
70433;SDS011;57876;47.792;12.960;2023-08-21T06:17:33;6.20;;;2.60;;
70433;SDS011;57876;47.792;12.960;2023-08-21T06:19:57;6.30;;;2.90;;
70433;SDS011;57876;47.792;12.960;2023-08-21T06:22:22;6.07;;;2.67;;
70433;SDS011;57876;47.792;12.960;2023-08-21T06:24:46;6.23;;;2.57;;
70433;SDS011;57876;47.792;12.960;2023-08-21T06:27:11;6.70;;;2.80;;
70433;SDS011;57876;47.792;12.960;2023-08-21T06:29:35;6.22;;;2.67;;
70433;SDS011;57876;47.792;12.960;2023-08-21T06:32:01;6.28;;;2.83;;
70433;SDS011;57876;47.792;12.960;2023-08-21T06:34:26;6.47;;;2.87;;
70433;SDS011;57876;47.792;12.960;2023-08-21T06:36:50;6.03;;;2.80;;
70433;SDS011;57876;47.792;12.960;2023-08-21T06:39:14;6.87;;;2.97;;
70433;SDS011;57876;47.792;12.960;2023-08-21T06:41:39;6.50;;;2.83;;
70433;SDS011;57876;47.792;12.960;2023-08-21T06:44:03;6.63;;;2.80;;
70433;SDS011;57876;47.792;12.960;2023-08-21T06:46:28;5.72;;;2.97;;
70433;SDS011;57876;47.792;12.960;2023-08-21T06:48:52;6.13;;;2.80;;
70433;SDS011;57876;47.792;12.960;2023-08-21T06:51:16;6.60;;;2.80;;
70433;SDS011;57876;47.792;12.960;2023-08-21T06:53:41;6.47;;;2.53;;
70433;SDS011;57876;47.792;12.960;2023-08-21T06:56:05;5.97;;;2.60;;
70433;SDS011;57876;47.792;12.960;2023-08-21T06:58:30;6.57;;;2.88;;
70433;SDS011;57876;47.792;12.960;2023-08-21T07:00:54;6.50;;;2.80;;
70433;SDS011;57876;47.792;12.960;2023-08-21T07:03:19;6.00;;;2.50;;
70433;SDS011;57876;47.792;12.960;2023-08-21T07:05:53;6.25;;;2.90;;
70433;SDS011;57876;47.792;12.960;2023-08-21T07:08:19;6.30;;;2.90;;
70433;SDS011;57876;47.792;12.960;2023-08-21T07:10:43;6.20;;;2.40;;
70433;SDS011;57876;47.792;12.960;2023-08-21T07:13:07;6.83;;;2.77;;
70433;SDS011;57876;47.792;12.960;2023-08-21T07:15:32;5.50;;;2.50;;
70433;SDS011;57876;47.792;12.960;2023-08-21T07:17:57;6.10;;;2.80;;
70433;SDS011;57876;47.792;12.960;2023-08-21T07:20:21;6.50;;;2.23;;
70433;SDS011;57876;47.792;12.960;2023-08-21T07:22:46;6.28;;;2.38;;
70433;SDS011;57876;47.792;12.960;2023-08-21T07:25:10;6.00;;;2.70;;
70433;SDS011;57876;47.792;12.960;2023-08-21T07:27:35;6.87;;;3.20;;
70433;SDS011;57876;47.792;12.960;2023-08-21T07:29:59;5.70;;;2.77;;
70433;SDS011;57876;47.792;12.960;2023-08-21T07:32:24;5.93;;;2.67;;
70433;SDS011;57876;47.792;12.960;2023-08-21T07:34:51;5.90;;;2.90;;
70433;SDS011;57876;47.792;12.960;2023-08-21T07:37:17;6.63;;;2.80;;
70433;SDS011;57876;47.792;12.960;2023-08-21T07:39:41;6.63;;;2.70;;
70433;SDS011;57876;47.792;12.960;2023-08-21T07:42:05;6.53;;;2.60;;
70433;SDS011;57876;47.792;12.960;2023-08-21T07:44:30;5.90;;;2.70;;
70433;SDS011;57876;47.792;12.960;2023-08-21T07:46:54;6.03;;;2.23;;
70433;SDS011;57876;47.792;12.960;2023-08-21T07:49:19;6.13;;;2.63;;
70433;SDS011;57876;47.792;12.960;2023-08-21T07:51:43;5.75;;;2.47;;
70433;SDS011;57876;47.792;12.960;2023-08-21T07:54:07;6.23;;;2.50;;
70433;SDS011;57876;47.792;12.960;2023-08-21T07:56:32;5.90;;;2.40;;
70433;SDS011;57876;47.792;12.960;2023-08-21T07:58:57;6.63;;;2.65;;
70433;SDS011;57876;47.792;12.960;2023-08-21T08:01:21;6.13;;;2.70;;
70433;SDS011;57876;47.792;12.960;2023-08-21T08:03:46;5.90;;;2.50;;
70433;SDS011;57876;47.792;12.960;2023-08-21T08:06:10;6.25;;;2.60;;
70433;SDS011;57876;47.792;12.960;2023-08-21T08:08:35;5.70;;;2.50;;
70433;SDS011;57876;47.792;12.960;2023-08-21T08:11:03;5.80;;;2.43;;
70433;SDS011;57876;47.792;12.960;2023-08-21T08:13:28;5.63;;;2.47;;
70433;SDS011;57876;47.792;12.960;2023-08-21T08:15:52;5.77;;;2.73;;
70433;SDS011;57876;47.792;12.960;2023-08-21T08:18:16;5.90;;;2.30;;
70433;SDS011;57876;47.792;12.960;2023-08-21T08:20:41;5.60;;;2.47;;
70433;SDS011;57876;47.792;12.960;2023-08-21T08:23:05;5.80;;;2.50;;
70433;SDS011;57876;47.792;12.960;2023-08-21T08:25:30;6.03;;;2.70;;
70433;SDS011;57876;47.792;12.960;2023-08-21T08:27:54;5.80;;;2.50;;
70433;SDS011;57876;47.792;12.960;2023-08-21T08:30:18;5.83;;;2.40;;
70433;SDS011;57876;47.792;12.960;2023-08-21T08:32:43;5.45;;;2.50;;
70433;SDS011;57876;47.792;12.960;2023-08-21T08:35:09;5.73;;;2.20;;
70433;SDS011;57876;47.792;12.960;2023-08-21T08:37:33;5.20;;;2.20;;
70433;SDS011;57876;47.792;12.960;2023-08-21T08:39:57;6.27;;;2.60;;
70433;SDS011;57876;47.792;12.960;2023-08-21T08:42:22;5.70;;;2.47;;
70433;SDS011;57876;47.792;12.960;2023-08-21T08:44:46;5.70;;;2.53;;
70433;SDS011;57876;47.792;12.960;2023-08-21T08:47:11;5.97;;;2.50;;
70433;SDS011;57876;47.792;12.960;2023-08-21T08:49:36;5.87;;;2.43;;
70433;SDS011;57876;47.792;12.960;2023-08-21T08:52:01;5.32;;;2.33;;
70433;SDS011;57876;47.792;12.960;2023-08-21T08:54:26;5.57;;;2.40;;
70433;SDS011;57876;47.792;12.960;2023-08-21T08:56:51;5.65;;;2.45;;
70433;SDS011;57876;47.792;12.960;2023-08-21T08:59:15;6.53;;;2.60;;
70433;SDS011;57876;47.792;12.960;2023-08-21T09:01:40;5.80;;;2.60;;
70433;SDS011;57876;47.792;12.960;2023-08-21T09:04:05;5.72;;;2.50;;
70433;SDS011;57876;47.792;12.960;2023-08-21T09:06:29;5.40;;;2.30;;
70433;SDS011;57876;47.792;12.960;2023-08-21T09:08:56;6.18;;;2.63;;
70433;SDS011;57876;47.792;12.960;2023-08-21T09:11:21;7.15;;;2.55;;
70433;SDS011;57876;47.792;12.960;2023-08-21T09:13:48;5.60;;;2.33;;
70433;SDS011;57876;47.792;12.960;2023-08-21T09:16:13;5.57;;;2.40;;
70433;SDS011;57876;47.792;12.960;2023-08-21T09:18:46;5.00;;;2.20;;
70433;SDS011;57876;47.792;12.960;2023-08-21T09:21:20;6.25;;;2.47;;
70433;SDS011;57876;47.792;12.960;2023-08-21T09:23:45;5.50;;;2.53;;
70433;SDS011;57876;47.792;12.960;2023-08-21T09:26:10;5.23;;;2.10;;
70433;SDS011;57876;47.792;12.960;2023-08-21T09:28:35;5.60;;;2.75;;
70433;SDS011;57876;47.792;12.960;2023-08-21T09:30:59;5.20;;;2.30;;
70433;SDS011;57876;47.792;12.960;2023-08-21T09:33:24;5.90;;;2.50;;
70433;SDS011;57876;47.792;12.960;2023-08-21T09:35:49;5.68;;;2.20;;
70433;SDS011;57876;47.792;12.960;2023-08-21T09:38:16;5.60;;;2.42;;
70433;SDS011;57876;47.792;12.960;2023-08-21T09:40:41;5.40;;;2.40;;
70433;SDS011;57876;47.792;12.960;2023-08-21T09:43:06;5.50;;;2.58;;
70433;SDS011;57876;47.792;12.960;2023-08-21T09:45:32;5.30;;;2.27;;
70433;SDS011;57876;47.792;12.960;2023-08-21T09:47:57;5.13;;;2.15;;
70433;SDS011;57876;47.792;12.960;2023-08-21T09:50:22;5.70;;;2.40;;
70433;SDS011;57876;47.792;12.960;2023-08-21T09:52:47;5.60;;;2.30;;
70433;SDS011;57876;47.792;12.960;2023-08-21T09:55:15;5.70;;;2.40;;
70433;SDS011;57876;47.792;12.960;2023-08-21T09:57:40;5.97;;;2.38;;
70433;SDS011;57876;47.792;12.960;2023-08-21T10:00:07;5.43;;;2.15;;
70433;SDS011;57876;47.792;12.960;2023-08-21T10:02:39;5.30;;;2.13;;
70433;SDS011;57876;47.792;12.960;2023-08-21T10:05:06;5.40;;;2.17;;
70433;SDS011;57876;47.792;12.960;2023-08-21T10:07:31;6.07;;;2.20;;
70433;SDS011;57876;47.792;12.960;2023-08-21T10:09:56;6.10;;;2.40;;
70433;SDS011;57876;47.792;12.960;2023-08-21T10:12:21;5.60;;;2.33;;
70433;SDS011;57876;47.792;12.960;2023-08-21T10:14:46;5.77;;;2.40;;
70433;SDS011;57876;47.792;12.960;2023-08-21T10:17:11;10.30;;;2.50;;
70433;SDS011;57876;47.792;12.960;2023-08-21T10:19:35;5.78;;;2.60;;
70433;SDS011;57876;47.792;12.960;2023-08-21T10:21:59;5.37;;;2.00;;
70433;SDS011;57876;47.792;12.960;2023-08-21T10:24:28;7.18;;;2.90;;
70433;SDS011;57876;47.792;12.960;2023-08-21T10:27:01;9.43;;;2.67;;
70433;SDS011;57876;47.792;12.960;2023-08-21T10:29:26;8.55;;;3.10;;
70433;SDS011;57876;47.792;12.960;2023-08-21T10:32:01;9.53;;;2.93;;
70433;SDS011;57876;47.792;12.960;2023-08-21T10:34:36;10.18;;;3.10;;
70433;SDS011;57876;47.792;12.960;2023-08-21T10:37:05;23.77;;;3.63;;
70433;SDS011;57876;47.792;12.960;2023-08-21T10:39:36;19.00;;;3.10;;
70433;SDS011;57876;47.792;12.960;2023-08-21T10:42:10;74.47;;;5.40;;
70433;SDS011;57876;47.792;12.960;2023-08-21T10:47:15;39.70;;;4.05;;
70433;SDS011;57876;47.792;12.960;2023-08-21T10:49:44;20.35;;;3.72;;
70433;SDS011;57876;47.792;12.960;2023-08-21T10:52:09;17.50;;;3.63;;
70433;SDS011;57876;47.792;12.960;2023-08-21T10:54:50;32.27;;;4.07;;
70433;SDS011;57876;47.792;12.960;2023-08-21T10:57:16;31.50;;;5.50;;
70433;SDS011;57876;47.792;12.960;2023-08-21T11:02:28;19.85;;;4.10;;
70433;SDS011;57876;47.792;12.960;2023-08-21T11:04:53;15.55;;;4.00;;
70433;SDS011;57876;47.792;12.960;2023-08-21T11:07:18;25.77;;;5.00;;
70433;SDS011;57876;47.792;12.960;2023-08-21T11:09:42;14.15;;;4.00;;
70433;SDS011;57876;47.792;12.960;2023-08-21T11:12:08;12.80;;;3.97;;
70433;SDS011;57876;47.792;12.960;2023-08-21T11:14:34;16.17;;;5.10;;
70433;SDS011;57876;47.792;12.960;2023-08-21T11:16:59;16.67;;;4.43;;
70433;SDS011;57876;47.792;12.960;2023-08-21T11:19:24;14.52;;;4.57;;
70433;SDS011;57876;47.792;12.960;2023-08-21T11:21:51;18.90;;;4.20;;
70433;SDS011;57876;47.792;12.960;2023-08-21T11:24:16;19.17;;;4.28;;
70433;SDS011;57876;47.792;12.960;2023-08-21T11:26:40;17.50;;;4.07;;
70433;SDS011;57876;47.792;12.960;2023-08-21T11:29:04;14.27;;;4.22;;
70433;SDS011;57876;47.792;12.960;2023-08-21T11:31:29;20.17;;;5.00;;
70433;SDS011;57876;47.792;12.960;2023-08-21T11:33:53;20.73;;;6.87;;
70433;SDS011;57876;47.792;12.960;2023-08-21T11:36:18;21.67;;;7.90;;
70433;SDS011;57876;47.792;12.960;2023-08-21T11:38:43;26.20;;;10.77;;
70433;SDS011;57876;47.792;12.960;2023-08-21T11:41:22;32.10;;;12.57;;
70433;SDS011;57876;47.792;12.960;2023-08-21T11:43:46;35.37;;;13.43;;
70433;SDS011;57876;47.792;12.960;2023-08-21T11:46:10;41.90;;;16.83;;
70433;SDS011;57876;47.792;12.960;2023-08-21T11:48:36;56.50;;;20.87;;
70433;SDS011;57876;47.792;12.960;2023-08-21T11:51:01;55.75;;;22.88;;
70433;SDS011;57876;47.792;12.960;2023-08-21T11:53:59;53.30;;;22.47;;
70433;SDS011;57876;47.792;12.960;2023-08-21T11:56:17;52.05;;;20.23;;
70433;SDS011;57876;47.792;12.960;2023-08-21T11:58:42;56.97;;;20.58;;
70433;SDS011;57876;47.792;12.960;2023-08-21T12:01:17;57.90;;;22.00;;
70433;SDS011;57876;47.792;12.960;2023-08-21T12:03:43;52.10;;;20.17;;
70433;SDS011;57876;47.792;12.960;2023-08-21T12:06:08;52.28;;;20.30;;
70433;SDS011;57876;47.792;12.960;2023-08-21T12:08:33;50.33;;;19.30;;
70433;SDS011;57876;47.792;12.960;2023-08-21T12:10:58;48.77;;;19.30;;
70433;SDS011;57876;47.792;12.960;2023-08-21T12:13:23;45.25;;;18.40;;
70433;SDS011;57876;47.792;12.960;2023-08-21T12:15:47;43.80;;;19.33;;
70433;SDS011;57876;47.792;12.960;2023-08-21T12:18:11;44.47;;;18.83;;
70433;SDS011;57876;47.792;12.960;2023-08-21T12:20:36;42.33;;;18.90;;
70433;SDS011;57876;47.792;12.960;2023-08-21T12:23:01;43.90;;;19.00;;
70433;SDS011;57876;47.792;12.960;2023-08-21T12:25:25;41.80;;;19.13;;
70433;SDS011;57876;47.792;12.960;2023-08-21T12:27:49;43.53;;;18.07;;
70433;SDS011;57876;47.792;12.960;2023-08-21T12:30:14;42.33;;;17.83;;
70433;SDS011;57876;47.792;12.960;2023-08-21T12:32:38;41.78;;;18.17;;
70433;SDS011;57876;47.792;12.960;2023-08-21T12:35:04;40.67;;;16.97;;
70433;SDS011;57876;47.792;12.960;2023-08-21T12:37:29;39.90;;;17.33;;
70433;SDS011;57876;47.792;12.960;2023-08-21T12:39:54;38.87;;;16.57;;
70433;SDS011;57876;47.792;12.960;2023-08-21T12:42:18;39.60;;;18.40;;
70433;SDS011;57876;47.792;12.960;2023-08-21T12:44:43;42.87;;;17.30;;
70433;SDS011;57876;47.792;12.960;2023-08-21T12:47:07;43.00;;;16.90;;
70433;SDS011;57876;47.792;12.960;2023-08-21T12:49:31;41.20;;;17.10;;
70433;SDS011;57876;47.792;12.960;2023-08-21T12:51:56;42.20;;;16.90;;
70433;SDS011;57876;47.792;12.960;2023-08-21T12:54:21;35.80;;;16.47;;
70433;SDS011;57876;47.792;12.960;2023-08-21T12:56:45;35.50;;;16.00;;
70433;SDS011;57876;47.792;12.960;2023-08-21T12:59:09;38.90;;;16.98;;
70433;SDS011;57876;47.792;12.960;2023-08-21T13:01:34;40.67;;;15.37;;
70433;SDS011;57876;47.792;12.960;2023-08-21T13:04:02;39.20;;;16.63;;
70433;SDS011;57876;47.792;12.960;2023-08-21T13:06:27;35.17;;;15.40;;
70433;SDS011;57876;47.792;12.960;2023-08-21T13:08:51;38.83;;;16.57;;
70433;SDS011;57876;47.792;12.960;2023-08-21T13:11:15;37.77;;;15.63;;
70433;SDS011;57876;47.792;12.960;2023-08-21T13:13:40;30.77;;;15.30;;
70433;SDS011;57876;47.792;12.960;2023-08-21T13:16:04;37.30;;;15.80;;
70433;SDS011;57876;47.792;12.960;2023-08-21T13:18:28;33.07;;;14.77;;
70433;SDS011;57876;47.792;12.960;2023-08-21T13:20:53;37.28;;;15.65;;
70433;SDS011;57876;47.792;12.960;2023-08-21T13:23:18;33.97;;;15.77;;
70433;SDS011;57876;47.792;12.960;2023-08-21T13:25:42;32.33;;;15.77;;
70433;SDS011;57876;47.792;12.960;2023-08-21T13:28:07;32.10;;;15.07;;
70433;SDS011;57876;47.792;12.960;2023-08-21T13:30:31;34.20;;;15.27;;
70433;SDS011;57876;47.792;12.960;2023-08-21T13:32:56;36.20;;;15.47;;
70433;SDS011;57876;47.792;12.960;2023-08-21T13:35:20;34.00;;;15.87;;
70433;SDS011;57876;47.792;12.960;2023-08-21T13:37:46;33.95;;;16.27;;
70433;SDS011;57876;47.792;12.960;2023-08-21T13:40:11;35.97;;;15.50;;
70433;SDS011;57876;47.792;12.960;2023-08-21T13:42:38;30.95;;;14.25;;
70433;SDS011;57876;47.792;12.960;2023-08-21T13:45:05;31.97;;;14.33;;
70433;SDS011;57876;47.792;12.960;2023-08-21T13:47:29;29.45;;;13.90;;
70433;SDS011;57876;47.792;12.960;2023-08-21T13:49:54;31.13;;;15.47;;
70433;SDS011;57876;47.792;12.960;2023-08-21T13:52:18;31.23;;;14.27;;
70433;SDS011;57876;47.792;12.960;2023-08-21T13:54:42;29.97;;;14.20;;
70433;SDS011;57876;47.792;12.960;2023-08-21T13:57:07;30.33;;;14.10;;
70433;SDS011;57876;47.792;12.960;2023-08-21T13:59:31;31.00;;;14.07;;
70433;SDS011;57876;47.792;12.960;2023-08-21T14:01:56;30.10;;;13.60;;
70433;SDS011;57876;47.792;12.960;2023-08-21T14:04:20;30.00;;;14.20;;
70433;SDS011;57876;47.792;12.960;2023-08-21T14:06:44;29.95;;;13.85;;
70433;SDS011;57876;47.792;12.960;2023-08-21T14:09:09;28.77;;;14.53;;
70433;SDS011;57876;47.792;12.960;2023-08-21T14:11:34;30.23;;;13.73;;
70433;SDS011;57876;47.792;12.960;2023-08-21T14:13:59;26.80;;;13.45;;
70433;SDS011;57876;47.792;12.960;2023-08-21T14:16:23;30.20;;;13.50;;
70433;SDS011;57876;47.792;12.960;2023-08-21T14:18:47;27.70;;;13.07;;
70433;SDS011;57876;47.792;12.960;2023-08-21T14:21:12;25.97;;;12.87;;
70433;SDS011;57876;47.792;12.960;2023-08-21T14:23:36;28.63;;;13.13;;
70433;SDS011;57876;47.792;12.960;2023-08-21T14:26:03;25.83;;;12.57;;
70433;SDS011;57876;47.792;12.960;2023-08-21T14:28:27;27.80;;;12.60;;